Huvudsida
METAR-TAF:

METAR-TAF

Flygplatser :

Kuching, Malaysia

latitud: 01-29N, longitud: 110-20E, höjd: 27 m

Aktuellt väderrapport

Denna rapport gjordes för 33 minuter sedan, klockan 01:00 UTC
Vind 6 kt från sydost, varierande mellan ost och syd/sydost
Temperatur 28°C
Fuktighet 84%
Tryck 1010 hPa
Sikt: 4000 m
Få moln på en höjd av 300 ft
Spridda moln på en höjd av 2000 ft
Brutna moln på en höjd av 15000 ft
torrdis

METAR: WBGG 220100Z 13006KT 100V160 4000 HZ FEW003 SCT020 BKN150 28/25 Q1010 NOSIG

Tid: 09:33 (01:33 UTC)

Väderprognos

Denna rapport gjordes för 2 timmar och 33 minuter sedan, klockan 23:00 UTC
Prognos gäller från 22 kl. 00 UTC till 23 kl. 00 UTC
Vind 3 kt varierande vindriktning
Sikt: 4000 m
Spridda moln på en höjd av 2000 ft
torrdis
Temporärt
från 22 kl. 07 UTC till 22 kl. 11 UTC
Sikt: 3000 m
Få moln på en höjd av 1500 ft, Cumulonimbus.
åska, regn, torrdis

TAF: WBGG 212300Z 2200/2300 VRB03KT 4000 HZ SCT020 TEMPO 2207/2211 3000 TSRA HZ FEW015CB

Aktuella väderrapporter och prognoser från 4000 flygplatser (METAR- och TAF-rapporter).

De tillgängliga stationerna syns som gula och röda prickar på kartan.

För musen över prickarna för att se namnen på stationerna.

Klicka sedan för att få väderrapporter och prognoser.

För att ändra kartan: Klicka på de gröna knapparna med ett svart kors på för att zooma in; den gröna knappen med ett streck på för att zooma ut; eller på de gröna pilarna för angränsande kartor.


METAR-TAF: